sensor_id;sensor_type;location;lat;lon;timestamp;P1;durP1;ratioP1;P2;durP2;ratioP2
7879;SDS011;3985;49.366;2.738;2023-04-06T00:01:07;29.00;;;27.00;;
7879;SDS011;3985;49.366;2.738;2023-04-06T00:03:36;28.50;;;25.50;;
7879;SDS011;3985;49.366;2.738;2023-04-06T00:06:03;29.50;;;27.50;;
7879;SDS011;3985;49.366;2.738;2023-04-06T00:08:31;28.00;;;26.75;;
7879;SDS011;3985;49.366;2.738;2023-04-06T00:10:58;30.25;;;30.00;;
7879;SDS011;3985;49.366;2.738;2023-04-06T00:13:26;29.25;;;27.50;;
7879;SDS011;3985;49.366;2.738;2023-04-06T00:15:53;31.25;;;27.25;;
7879;SDS011;3985;49.366;2.738;2023-04-06T00:18:21;29.00;;;24.25;;
7879;SDS011;3985;49.366;2.738;2023-04-06T00:20:50;31.00;;;26.75;;
7879;SDS011;3985;49.366;2.738;2023-04-06T00:23:17;29.00;;;29.00;;
7879;SDS011;3985;49.366;2.738;2023-04-06T00:25:44;32.25;;;30.75;;
7879;SDS011;3985;49.366;2.738;2023-04-06T00:28:12;25.50;;;25.50;;
7879;SDS011;3985;49.366;2.738;2023-04-06T00:30:40;25.50;;;24.00;;
7879;SDS011;3985;49.366;2.738;2023-04-06T00:33:07;29.75;;;28.75;;
7879;SDS011;3985;49.366;2.738;2023-04-06T00:35:34;21.25;;;19.00;;
7879;SDS011;3985;49.366;2.738;2023-04-06T00:38:03;30.75;;;28.00;;
7879;SDS011;3985;49.366;2.738;2023-04-06T00:40:30;36.25;;;32.00;;
7879;SDS011;3985;49.366;2.738;2023-04-06T00:42:59;28.75;;;28.75;;
7879;SDS011;3985;49.366;2.738;2023-04-06T00:45:27;35.50;;;33.50;;
7879;SDS011;3985;49.366;2.738;2023-04-06T00:47:54;35.50;;;32.50;;
7879;SDS011;3985;49.366;2.738;2023-04-06T00:50:22;33.25;;;33.25;;
7879;SDS011;3985;49.366;2.738;2023-04-06T00:52:49;30.75;;;27.00;;
7879;SDS011;3985;49.366;2.738;2023-04-06T00:55:18;26.25;;;23.00;;
7879;SDS011;3985;49.366;2.738;2023-04-06T00:57:46;28.50;;;26.00;;
7879;SDS011;3985;49.366;2.738;2023-04-06T01:00:13;33.00;;;27.25;;
7879;SDS011;3985;49.366;2.738;2023-04-06T01:02:41;25.50;;;25.50;;
7879;SDS011;3985;49.366;2.738;2023-04-06T01:05:10;31.50;;;28.50;;
7879;SDS011;3985;49.366;2.738;2023-04-06T01:07:37;29.50;;;27.25;;
7879;SDS011;3985;49.366;2.738;2023-04-06T01:10:05;38.25;;;35.50;;
7879;SDS011;3985;49.366;2.738;2023-04-06T01:12:34;31.25;;;28.00;;
7879;SDS011;3985;49.366;2.738;2023-04-06T01:15:02;29.75;;;29.75;;
7879;SDS011;3985;49.366;2.738;2023-04-06T01:17:30;28.75;;;27.00;;
7879;SDS011;3985;49.366;2.738;2023-04-06T01:19:58;33.50;;;30.50;;
7879;SDS011;3985;49.366;2.738;2023-04-06T01:22:26;31.00;;;29.25;;
7879;SDS011;3985;49.366;2.738;2023-04-06T01:24:54;31.75;;;31.50;;
7879;SDS011;3985;49.366;2.738;2023-04-06T01:27:21;25.75;;;24.50;;
7879;SDS011;3985;49.366;2.738;2023-04-06T01:29:50;33.75;;;33.75;;
7879;SDS011;3985;49.366;2.738;2023-04-06T01:32:18;30.50;;;28.25;;
7879;SDS011;3985;49.366;2.738;2023-04-06T01:34:45;25.75;;;24.50;;
7879;SDS011;3985;49.366;2.738;2023-04-06T01:37:13;29.00;;;29.00;;
7879;SDS011;3985;49.366;2.738;2023-04-06T01:39:42;29.00;;;25.00;;
7879;SDS011;3985;49.366;2.738;2023-04-06T01:42:11;22.75;;;21.25;;
7879;SDS011;3985;49.366;2.738;2023-04-06T01:44:38;29.00;;;27.25;;
7879;SDS011;3985;49.366;2.738;2023-04-06T01:47:06;24.75;;;20.00;;
7879;SDS011;3985;49.366;2.738;2023-04-06T01:49:33;31.50;;;28.25;;
7879;SDS011;3985;49.366;2.738;2023-04-06T01:52:00;26.50;;;26.50;;
7879;SDS011;3985;49.366;2.738;2023-04-06T01:54:28;24.25;;;23.75;;
7879;SDS011;3985;49.366;2.738;2023-04-06T01:56:56;30.25;;;26.00;;
7879;SDS011;3985;49.366;2.738;2023-04-06T01:59:24;31.25;;;29.25;;
7879;SDS011;3985;49.366;2.738;2023-04-06T02:01:51;28.00;;;25.25;;
7879;SDS011;3985;49.366;2.738;2023-04-06T02:04:19;33.75;;;33.25;;
7879;SDS011;3985;49.366;2.738;2023-04-06T02:06:46;31.00;;;27.50;;
7879;SDS011;3985;49.366;2.738;2023-04-06T02:09:14;9.50;;;3.75;;
7879;SDS011;3985;49.366;2.738;2023-04-06T02:11:41;33.25;;;30.75;;
7879;SDS011;3985;49.366;2.738;2023-04-06T02:14:10;27.50;;;25.00;;
7879;SDS011;3985;49.366;2.738;2023-04-06T02:16:37;32.50;;;31.00;;
7879;SDS011;3985;49.366;2.738;2023-04-06T02:19:04;35.50;;;33.00;;
7879;SDS011;3985;49.366;2.738;2023-04-06T02:21:32;31.50;;;31.50;;
7879;SDS011;3985;49.366;2.738;2023-04-06T02:23:59;31.75;;;30.00;;
7879;SDS011;3985;49.366;2.738;2023-04-06T02:26:26;31.75;;;28.75;;
7879;SDS011;3985;49.366;2.738;2023-04-06T02:28:54;30.25;;;30.00;;
7879;SDS011;3985;49.366;2.738;2023-04-06T02:31:25;33.25;;;29.50;;
7879;SDS011;3985;49.366;2.738;2023-04-06T02:33:52;36.75;;;32.75;;
7879;SDS011;3985;49.366;2.738;2023-04-06T02:36:20;33.50;;;30.75;;
7879;SDS011;3985;49.366;2.738;2023-04-06T02:38:47;40.25;;;32.25;;
7879;SDS011;3985;49.366;2.738;2023-04-06T02:41:14;37.25;;;36.00;;
7879;SDS011;3985;49.366;2.738;2023-04-06T02:43:42;30.50;;;27.25;;
7879;SDS011;3985;49.366;2.738;2023-04-06T02:46:09;36.75;;;30.50;;
7879;SDS011;3985;49.366;2.738;2023-04-06T02:48:38;37.50;;;33.25;;
7879;SDS011;3985;49.366;2.738;2023-04-06T02:51:06;32.00;;;32.00;;
7879;SDS011;3985;49.366;2.738;2023-04-06T02:53:33;38.00;;;35.00;;
7879;SDS011;3985;49.366;2.738;2023-04-06T02:56:00;29.75;;;29.75;;
7879;SDS011;3985;49.366;2.738;2023-04-06T02:58:27;36.00;;;34.25;;
7879;SDS011;3985;49.366;2.738;2023-04-06T03:00:55;37.25;;;35.00;;
7879;SDS011;3985;49.366;2.738;2023-04-06T03:03:22;36.00;;;34.75;;
7879;SDS011;3985;49.366;2.738;2023-04-06T03:05:51;34.75;;;33.25;;
7879;SDS011;3985;49.366;2.738;2023-04-06T03:08:19;36.50;;;34.75;;
7879;SDS011;3985;49.366;2.738;2023-04-06T03:10:46;38.50;;;34.50;;
7879;SDS011;3985;49.366;2.738;2023-04-06T03:13:14;30.50;;;28.75;;
7879;SDS011;3985;49.366;2.738;2023-04-06T03:15:41;34.75;;;33.75;;
7879;SDS011;3985;49.366;2.738;2023-04-06T03:18:08;42.00;;;37.50;;
7879;SDS011;3985;49.366;2.738;2023-04-06T03:20:38;45.50;;;38.50;;
7879;SDS011;3985;49.366;2.738;2023-04-06T03:23:07;47.75;;;37.75;;
7879;SDS011;3985;49.366;2.738;2023-04-06T03:25:34;41.50;;;36.75;;
7879;SDS011;3985;49.366;2.738;2023-04-06T03:28:04;35.75;;;33.75;;
7879;SDS011;3985;49.366;2.738;2023-04-06T03:30:31;36.00;;;33.25;;
7879;SDS011;3985;49.366;2.738;2023-04-06T03:32:59;41.50;;;36.50;;
7879;SDS011;3985;49.366;2.738;2023-04-06T03:35:27;32.25;;;31.00;;
7879;SDS011;3985;49.366;2.738;2023-04-06T03:37:54;40.25;;;37.00;;
7879;SDS011;3985;49.366;2.738;2023-04-06T03:40:24;33.00;;;31.00;;
7879;SDS011;3985;49.366;2.738;2023-04-06T03:42:51;36.00;;;34.75;;
7879;SDS011;3985;49.366;2.738;2023-04-06T03:45:19;39.50;;;37.25;;
7879;SDS011;3985;49.366;2.738;2023-04-06T03:47:46;29.25;;;29.25;;
7879;SDS011;3985;49.366;2.738;2023-04-06T03:50:14;34.50;;;33.25;;
7879;SDS011;3985;49.366;2.738;2023-04-06T03:52:41;38.25;;;32.00;;
7879;SDS011;3985;49.366;2.738;2023-04-06T03:55:08;31.25;;;31.25;;
7879;SDS011;3985;49.366;2.738;2023-04-06T03:57:37;36.25;;;34.50;;
7879;SDS011;3985;49.366;2.738;2023-04-06T04:00:06;36.75;;;34.25;;
7879;SDS011;3985;49.366;2.738;2023-04-06T04:02:34;36.50;;;34.75;;
7879;SDS011;3985;49.366;2.738;2023-04-06T04:05:01;34.25;;;31.25;;
7879;SDS011;3985;49.366;2.738;2023-04-06T04:07:29;37.75;;;35.00;;
7879;SDS011;3985;49.366;2.738;2023-04-06T04:09:56;38.00;;;35.00;;
7879;SDS011;3985;49.366;2.738;2023-04-06T04:12:24;37.25;;;28.25;;
7879;SDS011;3985;49.366;2.738;2023-04-06T04:14:53;38.00;;;32.50;;
7879;SDS011;3985;49.366;2.738;2023-04-06T04:17:21;36.50;;;34.25;;
7879;SDS011;3985;49.366;2.738;2023-04-06T04:19:48;35.00;;;30.25;;
7879;SDS011;3985;49.366;2.738;2023-04-06T04:22:15;41.25;;;36.75;;
7879;SDS011;3985;49.366;2.738;2023-04-06T04:24:43;36.75;;;34.75;;
7879;SDS011;3985;49.366;2.738;2023-04-06T04:27:10;30.50;;;27.75;;
7879;SDS011;3985;49.366;2.738;2023-04-06T04:29:37;39.50;;;36.75;;
7879;SDS011;3985;49.366;2.738;2023-04-06T04:32:06;38.00;;;35.00;;
7879;SDS011;3985;49.366;2.738;2023-04-06T04:34:34;38.00;;;35.50;;
7879;SDS011;3985;49.366;2.738;2023-04-06T04:37:01;37.75;;;33.00;;
7879;SDS011;3985;49.366;2.738;2023-04-06T04:39:28;31.50;;;29.25;;
7879;SDS011;3985;49.366;2.738;2023-04-06T04:41:56;35.00;;;34.50;;
7879;SDS011;3985;49.366;2.738;2023-04-06T04:44:23;39.50;;;35.50;;
7879;SDS011;3985;49.366;2.738;2023-04-06T04:46:51;33.75;;;27.50;;
7879;SDS011;3985;49.366;2.738;2023-04-06T04:49:20;33.75;;;31.50;;
7879;SDS011;3985;49.366;2.738;2023-04-06T04:51:48;42.25;;;33.00;;
7879;SDS011;3985;49.366;2.738;2023-04-06T04:54:17;39.75;;;35.75;;
7879;SDS011;3985;49.366;2.738;2023-04-06T04:56:45;33.00;;;31.25;;
7879;SDS011;3985;49.366;2.738;2023-04-06T04:59:12;34.75;;;34.00;;
7879;SDS011;3985;49.366;2.738;2023-04-06T05:01:39;36.50;;;33.75;;
7879;SDS011;3985;49.366;2.738;2023-04-06T05:04:07;35.25;;;32.50;;
7879;SDS011;3985;49.366;2.738;2023-04-06T05:06:35;34.00;;;32.50;;
7879;SDS011;3985;49.366;2.738;2023-04-06T05:09:03;36.75;;;33.00;;
7879;SDS011;3985;49.366;2.738;2023-04-06T05:11:30;34.75;;;33.25;;
7879;SDS011;3985;49.366;2.738;2023-04-06T05:13:57;31.50;;;31.50;;
7879;SDS011;3985;49.366;2.738;2023-04-06T05:16:26;36.75;;;32.50;;
7879;SDS011;3985;49.366;2.738;2023-04-06T05:18:53;36.00;;;34.25;;
7879;SDS011;3985;49.366;2.738;2023-04-06T05:21:21;44.50;;;36.00;;
7879;SDS011;3985;49.366;2.738;2023-04-06T05:23:51;38.75;;;34.00;;
7879;SDS011;3985;49.366;2.738;2023-04-06T05:26:19;39.00;;;34.25;;
7879;SDS011;3985;49.366;2.738;2023-04-06T05:28:46;36.75;;;32.50;;
7879;SDS011;3985;49.366;2.738;2023-04-06T05:31:14;35.25;;;34.25;;
7879;SDS011;3985;49.366;2.738;2023-04-06T05:33:41;34.50;;;31.50;;
7879;SDS011;3985;49.366;2.738;2023-04-06T05:36:09;33.25;;;32.25;;
7879;SDS011;3985;49.366;2.738;2023-04-06T05:38:36;39.75;;;34.25;;
7879;SDS011;3985;49.366;2.738;2023-04-06T05:41:05;45.25;;;38.75;;
7879;SDS011;3985;49.366;2.738;2023-04-06T05:43:33;37.50;;;34.75;;
7879;SDS011;3985;49.366;2.738;2023-04-06T05:46:00;38.75;;;37.00;;
7879;SDS011;3985;49.366;2.738;2023-04-06T05:48:28;35.00;;;33.75;;
7879;SDS011;3985;49.366;2.738;2023-04-06T05:50:55;43.25;;;38.00;;
7879;SDS011;3985;49.366;2.738;2023-04-06T05:53:22;37.50;;;34.00;;
7879;SDS011;3985;49.366;2.738;2023-04-06T05:55:51;37.00;;;36.00;;
7879;SDS011;3985;49.366;2.738;2023-04-06T05:58:20;48.75;;;40.25;;
7879;SDS011;3985;49.366;2.738;2023-04-06T06:00:47;51.00;;;40.00;;
7879;SDS011;3985;49.366;2.738;2023-04-06T06:03:14;45.75;;;39.00;;
7879;SDS011;3985;49.366;2.738;2023-04-06T06:05:42;40.75;;;37.00;;
7879;SDS011;3985;49.366;2.738;2023-04-06T06:08:09;38.25;;;34.25;;
7879;SDS011;3985;49.366;2.738;2023-04-06T06:10:37;32.25;;;32.25;;
7879;SDS011;3985;49.366;2.738;2023-04-06T06:13:05;32.75;;;31.50;;
7879;SDS011;3985;49.366;2.738;2023-04-06T06:15:34;42.50;;;36.50;;
7879;SDS011;3985;49.366;2.738;2023-04-06T06:18:02;40.25;;;35.75;;
7879;SDS011;3985;49.366;2.738;2023-04-06T06:20:29;36.00;;;34.25;;
7879;SDS011;3985;49.366;2.738;2023-04-06T06:22:56;34.75;;;32.50;;
7879;SDS011;3985;49.366;2.738;2023-04-06T06:25:24;40.75;;;34.50;;
7879;SDS011;3985;49.366;2.738;2023-04-06T06:27:52;32.25;;;29.50;;
7879;SDS011;3985;49.366;2.738;2023-04-06T06:30:19;34.00;;;30.50;;
7879;SDS011;3985;49.366;2.738;2023-04-06T06:32:48;27.00;;;25.75;;
7879;SDS011;3985;49.366;2.738;2023-04-06T06:35:16;35.75;;;34.00;;
7879;SDS011;3985;49.366;2.738;2023-04-06T06:37:43;36.25;;;33.00;;
7879;SDS011;3985;49.366;2.738;2023-04-06T06:40:11;32.25;;;29.75;;
7879;SDS011;3985;49.366;2.738;2023-04-06T06:42:41;34.00;;;32.00;;
7879;SDS011;3985;49.366;2.738;2023-04-06T06:45:08;34.50;;;32.75;;
7879;SDS011;3985;49.366;2.738;2023-04-06T06:47:36;29.00;;;27.00;;
7879;SDS011;3985;49.366;2.738;2023-04-06T06:50:06;34.25;;;30.25;;
7879;SDS011;3985;49.366;2.738;2023-04-06T06:52:33;37.00;;;32.75;;
7879;SDS011;3985;49.366;2.738;2023-04-06T06:55:01;33.25;;;33.25;;
7879;SDS011;3985;49.366;2.738;2023-04-06T06:57:28;31.25;;;27.50;;
7879;SDS011;3985;49.366;2.738;2023-04-06T06:59:55;30.75;;;30.50;;
7879;SDS011;3985;49.366;2.738;2023-04-06T07:02:24;32.00;;;32.00;;
7879;SDS011;3985;49.366;2.738;2023-04-06T07:04:52;33.25;;;28.25;;
7879;SDS011;3985;49.366;2.738;2023-04-06T07:07:21;30.00;;;30.00;;
7879;SDS011;3985;49.366;2.738;2023-04-06T07:09:48;33.50;;;30.50;;
7879;SDS011;3985;49.366;2.738;2023-04-06T07:12:16;26.25;;;22.75;;
7879;SDS011;3985;49.366;2.738;2023-04-06T07:14:43;31.50;;;31.50;;
7879;SDS011;3985;49.366;2.738;2023-04-06T07:17:10;34.00;;;31.00;;
7879;SDS011;3985;49.366;2.738;2023-04-06T07:19:37;34.50;;;34.00;;
7879;SDS011;3985;49.366;2.738;2023-04-06T07:22:05;30.25;;;30.25;;
7879;SDS011;3985;49.366;2.738;2023-04-06T07:24:34;34.00;;;32.75;;
7879;SDS011;3985;49.366;2.738;2023-04-06T07:27:01;34.00;;;33.25;;
7879;SDS011;3985;49.366;2.738;2023-04-06T07:29:29;30.25;;;25.25;;
7879;SDS011;3985;49.366;2.738;2023-04-06T07:31:56;30.25;;;30.25;;
7879;SDS011;3985;49.366;2.738;2023-04-06T07:34:23;31.75;;;31.00;;
7879;SDS011;3985;49.366;2.738;2023-04-06T07:36:50;33.75;;;30.50;;
7879;SDS011;3985;49.366;2.738;2023-04-06T07:39:19;29.25;;;28.50;;
7879;SDS011;3985;49.366;2.738;2023-04-06T07:41:48;34.75;;;29.25;;
7879;SDS011;3985;49.366;2.738;2023-04-06T07:44:15;26.00;;;23.75;;
7879;SDS011;3985;49.366;2.738;2023-04-06T07:46:42;34.25;;;31.25;;
7879;SDS011;3985;49.366;2.738;2023-04-06T07:49:10;34.00;;;32.00;;
7879;SDS011;3985;49.366;2.738;2023-04-06T07:51:37;31.75;;;31.75;;
7879;SDS011;3985;49.366;2.738;2023-04-06T07:54:05;29.00;;;29.00;;
7879;SDS011;3985;49.366;2.738;2023-04-06T07:56:32;27.25;;;25.50;;
7879;SDS011;3985;49.366;2.738;2023-04-06T07:59:01;31.25;;;29.25;;
7879;SDS011;3985;49.366;2.738;2023-04-06T08:01:28;35.00;;;31.00;;
7879;SDS011;3985;49.366;2.738;2023-04-06T08:03:55;29.00;;;27.25;;
7879;SDS011;3985;49.366;2.738;2023-04-06T08:06:23;38.00;;;35.00;;
7879;SDS011;3985;49.366;2.738;2023-04-06T08:08:51;35.50;;;32.25;;
7879;SDS011;3985;49.366;2.738;2023-04-06T08:11:18;31.00;;;30.25;;
7879;SDS011;3985;49.366;2.738;2023-04-06T08:13:46;34.75;;;32.75;;
7879;SDS011;3985;49.366;2.738;2023-04-06T08:16:15;32.25;;;29.50;;
7879;SDS011;3985;49.366;2.738;2023-04-06T08:18:42;31.75;;;31.75;;
7879;SDS011;3985;49.366;2.738;2023-04-06T08:21:09;30.75;;;30.25;;
7879;SDS011;3985;49.366;2.738;2023-04-06T08:23:37;32.50;;;30.75;;
7879;SDS011;3985;49.366;2.738;2023-04-06T08:26:04;30.00;;;29.50;;
7879;SDS011;3985;49.366;2.738;2023-04-06T08:28:31;34.75;;;33.00;;
7879;SDS011;3985;49.366;2.738;2023-04-06T08:31:02;35.50;;;31.00;;
7879;SDS011;3985;49.366;2.738;2023-04-06T08:33:32;32.00;;;31.00;;
7879;SDS011;3985;49.366;2.738;2023-04-06T08:36:06;31.00;;;29.25;;
7879;SDS011;3985;49.366;2.738;2023-04-06T08:38:35;29.25;;;29.25;;
7879;SDS011;3985;49.366;2.738;2023-04-06T08:41:06;31.00;;;26.00;;
7879;SDS011;3985;49.366;2.738;2023-04-06T08:43:35;32.75;;;32.75;;
7879;SDS011;3985;49.366;2.738;2023-04-06T08:46:08;35.00;;;32.25;;
7879;SDS011;3985;49.366;2.738;2023-04-06T08:48:37;29.25;;;28.75;;
7879;SDS011;3985;49.366;2.738;2023-04-06T08:51:05;29.25;;;29.25;;
7879;SDS011;3985;49.366;2.738;2023-04-06T08:53:33;36.50;;;32.50;;
7879;SDS011;3985;49.366;2.738;2023-04-06T08:56:00;28.75;;;27.75;;
7879;SDS011;3985;49.366;2.738;2023-04-06T08:58:28;38.00;;;31.00;;
7879;SDS011;3985;49.366;2.738;2023-04-06T09:01:00;29.25;;;29.25;;
7879;SDS011;3985;49.366;2.738;2023-04-06T09:03:30;37.00;;;35.25;;
7879;SDS011;3985;49.366;2.738;2023-04-06T09:06:00;30.75;;;28.75;;
7879;SDS011;3985;49.366;2.738;2023-04-06T09:08:29;28.25;;;27.75;;
7879;SDS011;3985;49.366;2.738;2023-04-06T09:10:57;36.25;;;32.50;;
7879;SDS011;3985;49.366;2.738;2023-04-06T09:13:24;29.50;;;27.50;;
7879;SDS011;3985;49.366;2.738;2023-04-06T09:15:58;38.75;;;35.50;;
7879;SDS011;3985;49.366;2.738;2023-04-06T09:18:30;39.25;;;34.75;;
7879;SDS011;3985;49.366;2.738;2023-04-06T09:21:00;36.50;;;35.25;;
7879;SDS011;3985;49.366;2.738;2023-04-06T09:23:29;36.00;;;30.25;;
7879;SDS011;3985;49.366;2.738;2023-04-06T09:26:04;36.25;;;32.75;;
7879;SDS011;3985;49.366;2.738;2023-04-06T09:28:41;34.25;;;30.75;;
7879;SDS011;3985;49.366;2.738;2023-04-06T09:31:09;37.50;;;30.00;;
7879;SDS011;3985;49.366;2.738;2023-04-06T09:33:37;34.75;;;32.25;;
7879;SDS011;3985;49.366;2.738;2023-04-06T09:36:07;34.75;;;31.50;;
7879;SDS011;3985;49.366;2.738;2023-04-06T09:38:36;32.00;;;26.75;;
7879;SDS011;3985;49.366;2.738;2023-04-06T09:41:04;28.75;;;25.50;;
7879;SDS011;3985;49.366;2.738;2023-04-06T09:43:31;33.00;;;30.00;;
7879;SDS011;3985;49.366;2.738;2023-04-06T09:46:00;25.25;;;25.25;;
7879;SDS011;3985;49.366;2.738;2023-04-06T09:48:30;30.25;;;29.75;;
7879;SDS011;3985;49.366;2.738;2023-04-06T09:50:59;31.50;;;30.00;;
7879;SDS011;3985;49.366;2.738;2023-04-06T09:53:30;28.50;;;28.50;;
7879;SDS011;3985;49.366;2.738;2023-04-06T09:55:58;32.50;;;30.00;;
7879;SDS011;3985;49.366;2.738;2023-04-06T09:58:32;31.75;;;27.75;;
7879;SDS011;3985;49.366;2.738;2023-04-06T10:01:01;35.50;;;30.00;;
7879;SDS011;3985;49.366;2.738;2023-04-06T10:03:33;30.00;;;28.50;;
7879;SDS011;3985;49.366;2.738;2023-04-06T10:06:05;31.75;;;28.25;;
7879;SDS011;3985;49.366;2.738;2023-04-06T10:08:39;42.50;;;34.00;;
7879;SDS011;3985;49.366;2.738;2023-04-06T10:11:07;28.25;;;28.25;;
7879;SDS011;3985;49.366;2.738;2023-04-06T10:13:35;32.25;;;30.50;;
7879;SDS011;3985;49.366;2.738;2023-04-06T10:16:03;34.50;;;34.00;;
7879;SDS011;3985;49.366;2.738;2023-04-06T10:18:31;32.00;;;32.00;;
7879;SDS011;3985;49.366;2.738;2023-04-06T10:21:00;33.50;;;31.00;;
7879;SDS011;3985;49.366;2.738;2023-04-06T10:23:31;28.50;;;26.75;;
7879;SDS011;3985;49.366;2.738;2023-04-06T10:26:01;42.00;;;36.00;;
7879;SDS011;3985;49.366;2.738;2023-04-06T10:28:34;31.50;;;31.50;;
7879;SDS011;3985;49.366;2.738;2023-04-06T10:31:04;36.50;;;34.00;;
7879;SDS011;3985;49.366;2.738;2023-04-06T10:33:31;45.00;;;36.50;;
7879;SDS011;3985;49.366;2.738;2023-04-06T10:36:09;34.75;;;32.75;;
7879;SDS011;3985;49.366;2.738;2023-04-06T10:38:37;34.50;;;30.00;;
7879;SDS011;3985;49.366;2.738;2023-04-06T10:41:07;37.50;;;32.50;;
7879;SDS011;3985;49.366;2.738;2023-04-06T10:43:36;30.25;;;30.25;;
7879;SDS011;3985;49.366;2.738;2023-04-06T10:46:04;32.50;;;30.75;;
7879;SDS011;3985;49.366;2.738;2023-04-06T10:48:36;31.25;;;28.00;;
7879;SDS011;3985;49.366;2.738;2023-04-06T10:51:07;26.75;;;26.25;;
7879;SDS011;3985;49.366;2.738;2023-04-06T10:53:36;31.50;;;28.50;;
7879;SDS011;3985;49.366;2.738;2023-04-06T10:56:04;28.75;;;25.50;;
7879;SDS011;3985;49.366;2.738;2023-04-06T10:58:38;39.25;;;33.00;;
7879;SDS011;3985;49.366;2.738;2023-04-06T11:01:10;36.00;;;33.50;;
7879;SDS011;3985;49.366;2.738;2023-04-06T11:03:42;34.00;;;31.50;;
7879;SDS011;3985;49.366;2.738;2023-04-06T11:06:17;25.50;;;21.50;;
7879;SDS011;3985;49.366;2.738;2023-04-06T11:08:47;30.25;;;29.00;;
7879;SDS011;3985;49.366;2.738;2023-04-06T11:11:17;31.25;;;31.00;;
7879;SDS011;3985;49.366;2.738;2023-04-06T11:13:46;29.75;;;29.00;;
7879;SDS011;3985;49.366;2.738;2023-04-06T11:16:15;26.50;;;26.25;;
7879;SDS011;3985;49.366;2.738;2023-04-06T11:18:47;31.50;;;30.50;;
7879;SDS011;3985;49.366;2.738;2023-04-06T11:21:15;26.25;;;26.25;;
7879;SDS011;3985;49.366;2.738;2023-04-06T11:23:42;21.75;;;21.75;;
7879;SDS011;3985;49.366;2.738;2023-04-06T11:26:10;25.25;;;24.00;;
7879;SDS011;3985;49.366;2.738;2023-04-06T11:28:40;21.00;;;20.50;;
7879;SDS011;3985;49.366;2.738;2023-04-06T11:31:08;23.50;;;22.00;;
7879;SDS011;3985;49.366;2.738;2023-04-06T11:33:36;19.00;;;18.50;;
7879;SDS011;3985;49.366;2.738;2023-04-06T11:36:05;22.75;;;20.75;;
7879;SDS011;3985;49.366;2.738;2023-04-06T11:38:33;16.25;;;15.25;;
7879;SDS011;3985;49.366;2.738;2023-04-06T11:41:01;14.75;;;14.75;;
7879;SDS011;3985;49.366;2.738;2023-04-06T11:43:29;15.00;;;15.00;;
7879;SDS011;3985;49.366;2.738;2023-04-06T11:46:01;15.25;;;15.25;;
7879;SDS011;3985;49.366;2.738;2023-04-06T11:48:30;15.75;;;14.75;;
7879;SDS011;3985;49.366;2.738;2023-04-06T11:50:58;15.50;;;15.50;;
7879;SDS011;3985;49.366;2.738;2023-04-06T11:53:27;15.00;;;13.50;;
7879;SDS011;3985;49.366;2.738;2023-04-06T11:55:55;15.00;;;13.00;;
7879;SDS011;3985;49.366;2.738;2023-04-06T11:58:25;14.75;;;14.25;;
7879;SDS011;3985;49.366;2.738;2023-04-06T12:00:52;12.50;;;12.50;;
7879;SDS011;3985;49.366;2.738;2023-04-06T12:03:21;12.00;;;12.00;;
7879;SDS011;3985;49.366;2.738;2023-04-06T12:05:48;13.67;;;12.00;;
7879;SDS011;3985;49.366;2.738;2023-04-06T12:08:15;12.33;;;12.33;;
7879;SDS011;3985;49.366;2.738;2023-04-06T12:10:43;12.00;;;12.00;;
7879;SDS011;3985;49.366;2.738;2023-04-06T12:13:10;9.33;;;8.00;;
7879;SDS011;3985;49.366;2.738;2023-04-06T12:15:37;12.00;;;10.00;;
7879;SDS011;3985;49.366;2.738;2023-04-06T12:18:05;6.25;;;6.25;;
7879;SDS011;3985;49.366;2.738;2023-04-06T12:20:33;10.50;;;10.50;;
7879;SDS011;3985;49.366;2.738;2023-04-06T12:23:00;9.50;;;9.50;;
7879;SDS011;3985;49.366;2.738;2023-04-06T12:25:28;9.00;;;9.00;;
7879;SDS011;3985;49.366;2.738;2023-04-06T12:27:55;7.25;;;7.25;;
7879;SDS011;3985;49.366;2.738;2023-04-06T12:30:23;7.00;;;7.00;;
7879;SDS011;3985;49.366;2.738;2023-04-06T12:32:50;6.75;;;6.75;;
7879;SDS011;3985;49.366;2.738;2023-04-06T12:35:18;7.00;;;5.75;;
7879;SDS011;3985;49.366;2.738;2023-04-06T12:37:47;5.75;;;4.25;;
7879;SDS011;3985;49.366;2.738;2023-04-06T12:40:14;3.25;;;3.25;;
7879;SDS011;3985;49.366;2.738;2023-04-06T12:42:42;7.00;;;5.00;;
7879;SDS011;3985;49.366;2.738;2023-04-06T12:45:11;5.00;;;5.00;;
7879;SDS011;3985;49.366;2.738;2023-04-06T12:47:38;6.75;;;6.75;;
7879;SDS011;3985;49.366;2.738;2023-04-06T12:50:06;6.00;;;4.25;;
7879;SDS011;3985;49.366;2.738;2023-04-06T12:52:33;4.75;;;4.75;;
7879;SDS011;3985;49.366;2.738;2023-04-06T12:55:03;6.00;;;5.00;;
7879;SDS011;3985;49.366;2.738;2023-04-06T12:57:31;5.50;;;5.50;;
7879;SDS011;3985;49.366;2.738;2023-04-06T12:59:58;4.50;;;4.50;;
7879;SDS011;3985;49.366;2.738;2023-04-06T13:02:25;7.00;;;5.25;;
7879;SDS011;3985;49.366;2.738;2023-04-06T13:04:53;4.50;;;4.50;;
7879;SDS011;3985;49.366;2.738;2023-04-06T13:07:20;3.00;;;3.00;;
7879;SDS011;3985;49.366;2.738;2023-04-06T13:09:47;4.00;;;4.00;;
7879;SDS011;3985;49.366;2.738;2023-04-06T13:12:16;4.00;;;4.00;;
7879;SDS011;3985;49.366;2.738;2023-04-06T13:14:44;3.00;;;3.00;;
7879;SDS011;3985;49.366;2.738;2023-04-06T13:17:15;3.75;;;3.75;;
7879;SDS011;3985;49.366;2.738;2023-04-06T13:19:43;3.50;;;3.50;;
7879;SDS011;3985;49.366;2.738;2023-04-06T13:22:10;2.00;;;2.00;;
7879;SDS011;3985;49.366;2.738;2023-04-06T13:24:38;5.00;;;3.25;;
7879;SDS011;3985;49.366;2.738;2023-04-06T13:27:05;4.75;;;3.00;;
7879;SDS011;3985;49.366;2.738;2023-04-06T13:29:34;4.00;;;4.00;;
7879;SDS011;3985;49.366;2.738;2023-04-06T13:32:02;3.00;;;3.00;;
7879;SDS011;3985;49.366;2.738;2023-04-06T13:34:30;3.00;;;2.00;;
7879;SDS011;3985;49.366;2.738;2023-04-06T13:36:57;2.25;;;2.00;;
7879;SDS011;3985;49.366;2.738;2023-04-06T13:39:24;2.25;;;2.25;;
7879;SDS011;3985;49.366;2.738;2023-04-06T13:41:53;3.00;;;3.00;;
7879;SDS011;3985;49.366;2.738;2023-04-06T13:44:21;2.00;;;2.00;;
7879;SDS011;3985;49.366;2.738;2023-04-06T13:46:49;2.25;;;2.00;;
7879;SDS011;3985;49.366;2.738;2023-04-06T13:49:17;2.75;;;2.75;;
7879;SDS011;3985;49.366;2.738;2023-04-06T13:51:44;3.50;;;3.50;;
7879;SDS011;3985;49.366;2.738;2023-04-06T13:54:11;4.00;;;2.50;;
7879;SDS011;3985;49.366;2.738;2023-04-06T13:56:39;1.25;;;1.25;;
7879;SDS011;3985;49.366;2.738;2023-04-06T13:59:06;1.75;;;1.75;;
7879;SDS011;3985;49.366;2.738;2023-04-06T14:01:33;3.25;;;2.00;;
7879;SDS011;3985;49.366;2.738;2023-04-06T14:04:01;3.00;;;1.50;;
7879;SDS011;3985;49.366;2.738;2023-04-06T14:06:29;1.75;;;1.75;;
7879;SDS011;3985;49.366;2.738;2023-04-06T14:08:56;2.50;;;2.00;;
7879;SDS011;3985;49.366;2.738;2023-04-06T14:11:23;2.00;;;2.00;;
7879;SDS011;3985;49.366;2.738;2023-04-06T14:13:51;1.50;;;1.50;;
7879;SDS011;3985;49.366;2.738;2023-04-06T14:16:18;5.75;;;1.75;;
7879;SDS011;3985;49.366;2.738;2023-04-06T14:18:46;1.25;;;1.25;;
7879;SDS011;3985;49.366;2.738;2023-04-06T14:21:15;1.00;;;1.00;;
7879;SDS011;3985;49.366;2.738;2023-04-06T14:23:42;2.00;;;2.00;;
7879;SDS011;3985;49.366;2.738;2023-04-06T14:26:09;1.25;;;1.25;;
7879;SDS011;3985;49.366;2.738;2023-04-06T14:28:36;1.75;;;1.75;;
7879;SDS011;3985;49.366;2.738;2023-04-06T14:31:09;1.25;;;1.25;;
7879;SDS011;3985;49.366;2.738;2023-04-06T14:33:38;3.00;;;2.00;;
7879;SDS011;3985;49.366;2.738;2023-04-06T14:36:05;3.50;;;2.00;;
7879;SDS011;3985;49.366;2.738;2023-04-06T14:38:34;1.00;;;1.00;;
7879;SDS011;3985;49.366;2.738;2023-04-06T14:41:03;3.00;;;3.00;;
7879;SDS011;3985;49.366;2.738;2023-04-06T14:43:30;1.25;;;1.25;;
7879;SDS011;3985;49.366;2.738;2023-04-06T14:45:59;1.00;;;1.00;;
7879;SDS011;3985;49.366;2.738;2023-04-06T14:48:26;4.50;;;1.75;;
7879;SDS011;3985;49.366;2.738;2023-04-06T14:50:54;3.00;;;3.00;;
7879;SDS011;3985;49.366;2.738;2023-04-06T14:53:22;2.00;;;1.00;;
7879;SDS011;3985;49.366;2.738;2023-04-06T14:55:50;1.00;;;1.00;;
7879;SDS011;3985;49.366;2.738;2023-04-06T14:58:18;3.50;;;2.00;;